createdAt,value
2023-05-14T00:08:15.902Z,69.5
2023-05-14T00:28:15.875Z,71.4
2023-05-14T00:48:15.816Z,73.2
2023-05-14T01:08:15.794Z,74.0
2023-05-14T01:28:15.801Z,71.6
2023-05-14T01:48:15.729Z,72.3
2023-05-14T02:08:15.704Z,73.2
2023-05-14T02:28:15.707Z,73.6
2023-05-14T02:48:15.680Z,78.3
2023-05-14T03:08:15.664Z,79.2
2023-05-14T03:28:15.640Z,79.7
2023-05-14T03:48:15.596Z,79.3
2023-05-14T04:08:15.609Z,81.7
2023-05-14T04:28:15.585Z,80.5
2023-05-14T04:48:15.555Z,79.9
2023-05-14T05:08:15.566Z,79.7
2023-05-14T05:28:15.505Z,82.6
2023-05-14T05:48:15.495Z,81.8
2023-05-14T06:08:15.493Z,80.1
2023-05-14T06:28:15.468Z,76.7
2023-05-14T06:48:15.443Z,74.7
2023-05-14T07:08:15.437Z,73.4
2023-05-14T07:28:15.410Z,72.3
2023-05-14T07:48:15.481Z,69.0
2023-05-14T08:08:15.457Z,65.4
2023-05-14T08:28:15.352Z,64.7
2023-05-14T08:48:15.347Z,64.1
2023-05-14T09:08:15.275Z,66.0
2023-05-14T09:28:15.280Z,65.1
2023-05-14T09:48:15.394Z,68.4
2023-05-14T10:28:15.217Z,62.4
2023-05-14T10:48:15.188Z,60.0
2023-05-14T11:08:15.326Z,60.7
2023-05-14T11:28:15.142Z,57.5
2023-05-14T11:48:15.106Z,59.4
2023-05-14T12:08:15.136Z,58.3
2023-05-14T12:28:15.066Z,58.9
2023-05-14T13:08:14.994Z,57.7
2023-05-14T13:28:14.987Z,55.3
2023-05-14T13:48:15.090Z,56.5
2023-05-14T14:08:15.055Z,56.2
2023-05-14T14:28:15.073Z,54.0
2023-05-14T14:48:14.875Z,53.5
2023-05-14T15:08:14.871Z,50.8
2023-05-14T15:28:14.907Z,52.1
2023-05-14T15:48:14.886Z,49.4
2023-05-14T16:08:14.799Z,51.6
2023-05-14T16:28:14.902Z,50.7
2023-05-14T16:48:14.728Z,51.7
2023-05-14T17:08:14.705Z,51.1
2023-05-14T17:28:14.686Z,51.7
2023-05-14T17:48:14.694Z,52.6
2023-05-14T18:08:14.665Z,53.9
2023-05-14T18:28:14.605Z,55.4
2023-05-14T18:48:14.588Z,56.1
2023-05-14T19:08:14.673Z,56.1
2023-05-14T19:28:14.720Z,65.1
2023-05-14T19:48:14.602Z,73.3
2023-05-14T20:08:14.626Z,74.8
2023-05-14T20:28:14.650Z,71.2
2023-05-14T20:48:14.621Z,71.0
2023-05-14T21:08:14.635Z,72.4
2023-05-14T21:28:14.589Z,69.8
2023-05-14T21:48:14.424Z,71.6
2023-05-14T22:08:14.392Z,72.9
2023-05-14T22:28:14.425Z,75.3
2023-05-14T22:48:14.312Z,76.4
2023-05-14T23:08:14.400Z,75.0
2023-05-14T23:28:14.305Z,74.4
2023-05-14T23:48:14.311Z,79.6
